Time;durP1;ratioP1;P1;durP2;ratioP2;P2;SDS_P1;SDS_P2;PMS_P1;PMS_P2;Temp;Humidity;BMP_temperature;BMP_pressure;BME280_temperature;BME280_humidity;BME280_pressure;Samples;Min_cycle;Max_cycle;Signal;HPM_P1;HPM_P2
2021/12/11 00:01:18;;;;;;;37.97;15.70;;;;;;;;;;4994830;28;20688;-69
2021/12/11 00:03:50;;;;;;;33.27;15.60;;;;;;;;;;5010960;28;20186;-69
2021/12/11 00:06:22;;;;;;;34.83;15.63;;;;;;;;;;4995544;28;20186;-69
2021/12/11 00:08:51;;;;;;;33.57;14.00;;;;;;;;;;5008254;28;20195;-69
2021/12/11 00:11:21;;;;;;;31.87;14.83;;;;;;;;;;4995216;28;20191;-69
2021/12/11 00:13:47;;;;;;;33.67;14.93;;;;;;;;;;5016927;28;20265;-69
2021/12/11 00:16:18;;;;;;;31.00;13.77;;;;;;;;;;4997139;28;20207;-69
2021/12/11 00:18:48;;;;;;;31.30;14.87;;;;;;;;;;5003777;28;20330;-69
2021/12/11 00:21:17;;;;;;;41.43;14.93;;;;;;;;;;4996132;28;20273;-69
2021/12/11 00:23:51;;;;;;;32.13;14.27;;;;;;;;;;5008554;28;20198;-69
2021/12/11 00:26:28;;;;;;;32.80;14.73;;;;;;;;;;4997615;28;20189;-69
2021/12/11 00:28:54;;;;;;;33.50;14.57;;;;;;;;;;5005086;28;20198;-69
2021/12/11 00:31:20;;;;;;;35.10;13.63;;;;;;;;;;4998848;28;25251;-69
2021/12/11 00:33:47;;;;;;;29.73;14.17;;;;;;;;;;5002379;28;20195;-69
2021/12/11 00:36:17;;;;;;;32.67;14.80;;;;;;;;;;5009051;28;20211;-69
2021/12/11 00:38:47;;;;;;;37.23;16.10;;;;;;;;;;5000021;28;20214;-69
2021/12/11 00:41:14;;;;;;;38.03;16.47;;;;;;;;;;5009198;28;20194;-70
2021/12/11 00:43:41;;;;;;;35.50;16.17;;;;;;;;;;4995447;28;20633;-70
2021/12/11 00:46:10;;;;;;;33.30;15.93;;;;;;;;;;5017987;28;20186;-70
2021/12/11 00:48:37;;;;;;;34.37;16.00;;;;;;;;;;4995174;28;20194;-70
2021/12/11 00:51:11;;;;;;;37.87;16.57;;;;;;;;;;5003756;28;20187;-70
2021/12/11 00:53:54;;;;;;;34.70;15.93;;;;;;;;;;4998467;28;20260;-69
2021/12/11 00:56:26;;;;;;;31.90;14.33;;;;;;;;;;5006611;28;20221;-69
2021/12/11 00:58:55;;;;;;;33.43;15.10;;;;;;;;;;4995677;28;20305;-69
2021/12/11 01:01:27;;;;;;;34.53;15.57;;;;;;;;;;5002444;28;20264;-69
2021/12/11 01:03:58;;;;;;;32.90;14.47;;;;;;;;;;4999128;28;20189;-70
2021/12/11 01:06:38;;;;;;;33.97;14.30;;;;;;;;;;5006282;28;20186;-70
2021/12/11 01:09:12;;;;;;;37.50;15.77;;;;;;;;;;5000101;28;20202;-70
2021/12/11 01:11:57;;;;;;;35.60;16.33;;;;;;;;;;5003213;28;20214;-69
2021/12/11 01:14:36;;;;;;;33.60;15.03;;;;;;;;;;5002167;28;20189;-70
2021/12/11 01:17:14;;;;;;;37.10;16.20;;;;;;;;;;5004726;28;20185;-70
2021/12/11 01:19:44;;;;;;;35.27;15.67;;;;;;;;;;5002430;28;20284;-70
2021/12/11 01:22:46;;;;;;;35.63;16.63;;;;;;;;;;5000232;28;20566;-70
2021/12/11 01:25:27;;;;;;;32.03;14.53;;;;;;;;;;4997305;28;20191;-70
2021/12/11 01:27:59;;;;;;;39.97;15.77;;;;;;;;;;5019415;28;20688;-70
2021/12/11 01:30:30;;;;;;;36.43;16.90;;;;;;;;;;5001104;28;20217;-69
2021/12/11 01:32:55;;;;;;;39.37;17.60;;;;;;;;;;5017663;28;20191;-69
2021/12/11 01:35:23;;;;;;;42.30;17.33;;;;;;;;;;5000443;28;20636;-69
2021/12/11 01:37:58;;;;;;;38.77;17.20;;;;;;;;;;5016078;28;20604;-69
2021/12/11 01:40:23;;;;;;;44.23;17.63;;;;;;;;;;4998513;28;20186;-69
2021/12/11 01:42:49;;;;;;;38.43;17.50;;;;;;;;;;5010039;28;20218;-69
2021/12/11 01:45:16;;;;;;;41.73;17.67;;;;;;;;;;4999143;28;20269;-69
2021/12/11 01:47:46;;;;;;;34.30;15.97;;;;;;;;;;5012774;28;20677;-69
2021/12/11 01:50:28;;;;;;;35.03;16.77;;;;;;;;;;5001372;28;20183;-70
2021/12/11 01:53:04;;;;;;;43.17;17.57;;;;;;;;;;5010101;28;20203;-69
2021/12/11 01:55:37;;;;;;;35.00;16.37;;;;;;;;;;4993467;28;20287;-69
2021/12/11 01:58:07;;;;;;;38.57;17.77;;;;;;;;;;5002746;28;20237;-69
2021/12/11 02:00:39;;;;;;;34.90;16.27;;;;;;;;;;4992466;28;20188;-70
2021/12/11 02:03:09;;;;;;;37.57;16.73;;;;;;;;;;5006421;28;20277;-69
2021/12/11 02:05:37;;;;;;;36.60;16.83;;;;;;;;;;5009303;28;20241;-70
2021/12/11 02:08:07;;;;;;;39.70;17.83;;;;;;;;;;4998384;28;20183;-69
2021/12/11 02:10:38;;;;;;;38.20;17.07;;;;;;;;;;5022633;28;20638;-70
2021/12/11 02:13:08;;;;;;;35.77;17.43;;;;;;;;;;4997547;28;20199;-70
2021/12/11 02:15:38;;;;;;;43.13;17.40;;;;;;;;;;5014254;28;20643;-69
2021/12/11 02:18:14;;;;;;;38.27;16.80;;;;;;;;;;5000030;28;20194;-68
2021/12/11 02:20:49;;;;;;;36.70;16.90;;;;;;;;;;5011718;28;20194;-69
2021/12/11 02:23:15;;;;;;;41.20;16.37;;;;;;;;;;5000194;28;20552;-70
2021/12/11 02:25:46;;;;;;;40.73;17.13;;;;;;;;;;5009752;28;20266;-69
2021/12/11 02:28:20;;;;;;;33.27;16.33;;;;;;;;;;4995169;28;20202;-69
2021/12/11 02:30:54;;;;;;;38.60;16.87;;;;;;;;;;5003332;28;20215;-69
2021/12/11 02:33:26;;;;;;;44.43;16.63;;;;;;;;;;5000105;28;20580;-69
2021/12/11 02:35:57;;;;;;;43.23;17.93;;;;;;;;;;5005310;28;20219;-70
2021/12/11 02:38:31;;;;;;;40.23;15.83;;;;;;;;;;4995667;28;20686;-69
2021/12/11 02:41:12;;;;;;;46.27;17.80;;;;;;;;;;5005581;28;20186;-69
2021/12/11 02:43:54;;;;;;;39.83;16.90;;;;;;;;;;5009366;28;20205;-69
2021/12/11 02:46:26;;;;;;;38.17;15.13;;;;;;;;;;5007800;28;20501;-69
2021/12/11 02:48:58;;;;;;;43.07;17.00;;;;;;;;;;4997659;28;20190;-69
2021/12/11 02:51:35;;;;;;;35.80;15.30;;;;;;;;;;5001028;28;20180;-69
2021/12/11 02:54:07;;;;;;;36.73;16.50;;;;;;;;;;4995363;28;20237;-70
2021/12/11 02:56:36;;;;;;;36.00;16.27;;;;;;;;;;5011049;28;20552;-70
2021/12/11 02:59:13;;;;;;;36.03;17.17;;;;;;;;;;5000806;28;20266;-70
2021/12/11 03:01:43;;;;;;;40.10;15.83;;;;;;;;;;5015457;28;20178;-70
2021/12/11 03:04:22;;;;;;;35.27;15.23;;;;;;;;;;4998361;28;20218;-70
2021/12/11 03:06:50;;;;;;;36.63;15.13;;;;;;;;;;5001912;28;20195;-70
2021/12/11 03:09:22;;;;;;;34.10;14.83;;;;;;;;;;4996993;28;20345;-70
2021/12/11 03:11:48;;;;;;;32.77;14.40;;;;;;;;;;5013061;28;20194;-70
2021/12/11 03:14:16;;;;;;;31.33;14.53;;;;;;;;;;5005545;28;20179;-70
2021/12/11 03:16:44;;;;;;;34.37;14.53;;;;;;;;;;4997184;28;20826;-70
2021/12/11 03:19:13;;;;;;;31.43;13.90;;;;;;;;;;5005802;28;20603;-70
2021/12/11 03:21:39;;;;;;;39.43;15.03;;;;;;;;;;4999226;28;20190;-70
2021/12/11 03:24:06;;;;;;;33.50;15.27;;;;;;;;;;5006412;28;20660;-69
2021/12/11 03:26:32;;;;;;;33.20;14.13;;;;;;;;;;4995458;28;20237;-70
2021/12/11 03:28:57;;;;;;;32.93;14.97;;;;;;;;;;5009261;28;20194;-70
2021/12/11 03:31:23;;;;;;;37.37;14.33;;;;;;;;;;5007530;28;20264;-70
2021/12/11 03:33:55;;;;;;;36.17;15.30;;;;;;;;;;5007648;28;20211;-70
2021/12/11 03:36:22;;;;;;;34.60;14.90;;;;;;;;;;4996636;28;20283;-69
2021/12/11 03:39:04;;;;;;;33.73;14.47;;;;;;;;;;5010032;28;20190;-70
2021/12/11 03:41:30;;;;;;;32.57;14.50;;;;;;;;;;4998267;28;20230;-70
2021/12/11 03:43:55;;;;;;;30.43;13.77;;;;;;;;;;4997255;28;20191;-70
2021/12/11 03:46:21;;;;;;;31.73;14.17;;;;;;;;;;4992998;28;20195;-70
2021/12/11 03:48:51;;;;;;;39.87;15.50;;;;;;;;;;5013387;28;20356;-69
2021/12/11 03:51:21;;;;;;;28.83;14.30;;;;;;;;;;4993629;28;20277;-70
2021/12/11 03:53:47;;;;;;;34.87;14.63;;;;;;;;;;4997517;28;20191;-70
2021/12/11 03:56:14;;;;;;;34.10;13.90;;;;;;;;;;5005951;28;20207;-70
2021/12/11 03:58:48;;;;;;;30.10;14.23;;;;;;;;;;5000571;28;20206;-69
2021/12/11 04:01:22;;;;;;;36.27;14.10;;;;;;;;;;5001874;28;20184;-70
2021/12/11 04:03:49;;;;;;;31.90;13.43;;;;;;;;;;4998366;28;20279;-70
2021/12/11 04:06:16;;;;;;;33.47;15.03;;;;;;;;;;5004974;28;20190;-70
2021/12/11 04:08:42;;;;;;;34.57;15.10;;;;;;;;;;5001934;28;20316;-70
2021/12/11 04:11:17;;;;;;;30.13;14.07;;;;;;;;;;5003899;28;20285;-69
2021/12/11 04:13:44;;;;;;;33.97;14.50;;;;;;;;;;5004762;28;20187;-69
2021/12/11 04:16:10;;;;;;;27.93;13.70;;;;;;;;;;5005428;28;20221;-69
2021/12/11 04:18:37;;;;;;;29.60;13.57;;;;;;;;;;4992166;28;20234;-69
2021/12/11 04:21:03;;;;;;;30.90;13.73;;;;;;;;;;5000005;28;20200;-70
2021/12/11 04:23:29;;;;;;;35.30;15.10;;;;;;;;;;5002838;28;20649;-70
2021/12/11 04:25:56;;;;;;;39.33;15.60;;;;;;;;;;5011206;28;20227;-69
2021/12/11 04:28:23;;;;;;;30.10;14.90;;;;;;;;;;4998361;28;20658;-70
2021/12/11 04:30:51;;;;;;;29.23;14.77;;;;;;;;;;5004084;28;20190;-69
2021/12/11 04:33:17;;;;;;;34.13;14.57;;;;;;;;;;5006590;28;20769;-69
2021/12/11 04:35:43;;;;;;;32.43;13.93;;;;;;;;;;5004499;28;20288;-69
2021/12/11 04:38:12;;;;;;;30.47;13.90;;;;;;;;;;5004082;28;20273;-70
2021/12/11 04:40:42;;;;;;;32.70;13.63;;;;;;;;;;5006506;28;20221;-70
2021/12/11 04:43:16;;;;;;;35.47;14.17;;;;;;;;;;5004058;28;20290;-69
2021/12/11 04:46:02;;;;;;;32.20;13.77;;;;;;;;;;4997622;28;20194;-70
2021/12/11 04:48:49;;;;;;;33.20;14.87;;;;;;;;;;5003961;28;20542;-70
2021/12/11 04:56:57;;;;;;;30.00;13.43;;;;;;;;;;4991511;28;20276;-70
2021/12/11 05:10:06;;;;;;;30.43;13.27;;;;;;;;;;5008856;28;20623;-69
2021/12/11 05:12:35;;;;;;;36.93;13.73;;;;;;;;;;5000812;28;20206;-69
2021/12/11 05:15:04;;;;;;;25.83;12.27;;;;;;;;;;5010754;28;20247;-69
2021/12/11 05:17:30;;;;;;;29.10;14.30;;;;;;;;;;5001194;28;20649;-70
2021/12/11 05:19:56;;;;;;;26.97;11.97;;;;;;;;;;5010686;28;20234;-69
2021/12/11 05:22:22;;;;;;;32.43;13.70;;;;;;;;;;4999499;28;20278;-70
2021/12/11 05:24:53;;;;;;;32.53;14.23;;;;;;;;;;5009436;28;20191;-70
2021/12/11 05:27:18;;;;;;;38.07;13.47;;;;;;;;;;4999073;28;20195;-69
2021/12/11 05:29:44;;;;;;;35.83;14.80;;;;;;;;;;5008553;28;20456;-69
2021/12/11 05:32:14;;;;;;;28.13;14.10;;;;;;;;;;5003947;28;20198;-69
2021/12/11 05:34:41;;;;;;;34.37;13.70;;;;;;;;;;5007287;28;20191;-70
2021/12/11 05:37:07;;;;;;;27.97;13.63;;;;;;;;;;5001638;28;20226;-70
2021/12/11 05:39:32;;;;;;;23.87;12.07;;;;;;;;;;5007536;28;20277;-69
2021/12/11 05:41:58;;;;;;;30.13;12.93;;;;;;;;;;5005310;28;20475;-69
2021/12/11 05:44:24;;;;;;;33.57;12.73;;;;;;;;;;5008585;28;20202;-69
2021/12/11 05:46:52;;;;;;;31.53;14.00;;;;;;;;;;5018019;28;20190;-69
2021/12/11 05:49:18;;;;;;;34.17;13.33;;;;;;;;;;4997582;28;20201;-69
2021/12/11 05:51:46;;;;;;;32.10;14.20;;;;;;;;;;5015068;28;20544;-69
2021/12/11 05:54:17;;;;;;;32.77;13.17;;;;;;;;;;4995991;28;20274;-69
2021/12/11 05:56:46;;;;;;;30.17;13.33;;;;;;;;;;5017869;28;20207;-69
2021/12/11 05:59:13;;;;;;;37.57;14.70;;;;;;;;;;4998807;28;20224;-69
2021/12/11 06:01:46;;;;;;;30.13;12.80;;;;;;;;;;5011554;28;20517;-69
2021/12/11 06:04:15;;;;;;;31.17;13.10;;;;;;;;;;4999703;28;20646;-69
2021/12/11 06:06:42;;;;;;;34.20;13.27;;;;;;;;;;5004285;28;20190;-70
2021/12/11 06:09:10;;;;;;;33.97;14.03;;;;;;;;;;4998235;28;20282;-69
2021/12/11 06:11:36;;;;;;;33.67;13.00;;;;;;;;;;5011407;28;20193;-69
2021/12/11 06:14:03;;;;;;;36.80;12.83;;;;;;;;;;5000053;28;20313;-69
2021/12/11 06:16:29;;;;;;;30.23;12.67;;;;;;;;;;5008826;28;20647;-70
2021/12/11 06:18:55;;;;;;;31.30;12.57;;;;;;;;;;5005103;28;20241;-69
2021/12/11 06:21:20;;;;;;;33.57;13.23;;;;;;;;;;5004583;28;20230;-70
2021/12/11 06:23:46;;;;;;;33.33;12.93;;;;;;;;;;5010858;28;20221;-69
2021/12/11 06:26:11;;;;;;;30.20;13.80;;;;;;;;;;4995762;28;20277;-69
2021/12/11 06:28:37;;;;;;;33.03;14.17;;;;;;;;;;5006849;28;20265;-69
2021/12/11 06:31:03;;;;;;;30.93;13.23;;;;;;;;;;4999906;28;20750;-70
2021/12/11 06:33:31;;;;;;;35.63;14.00;;;;;;;;;;5008134;28;20208;-70
2021/12/11 06:36:10;;;;;;;35.50;13.63;;;;;;;;;;5000248;28;20268;-70
2021/12/11 06:38:39;;;;;;;36.97;14.23;;;;;;;;;;5007620;28;20236;-69
2021/12/11 06:41:07;;;;;;;39.67;14.93;;;;;;;;;;4995903;28;20218;-69
2021/12/11 06:43:34;;;;;;;32.07;14.27;;;;;;;;;;5005055;28;20650;-70
2021/12/11 06:46:00;;;;;;;35.53;14.07;;;;;;;;;;5002537;28;20581;-69
2021/12/11 06:48:25;;;;;;;33.33;13.50;;;;;;;;;;5015791;28;20190;-70
2021/12/11 06:50:51;;;;;;;38.77;14.07;;;;;;;;;;5002486;28;20529;-70
2021/12/11 06:53:30;;;;;;;33.63;14.13;;;;;;;;;;5011285;28;20639;-70
2021/12/11 06:55:56;;;;;;;32.03;13.67;;;;;;;;;;5003341;28;20233;-69
2021/12/11 06:58:21;;;;;;;31.90;12.90;;;;;;;;;;5013495;28;20183;-69
2021/12/11 07:00:47;;;;;;;23.35;11.73;;;;;;;;;;4336631;28;10021615;-69
2021/12/11 07:03:12;;;;;;;32.37;13.50;;;;;;;;;;4998235;28;20197;-69
2021/12/11 07:05:38;;;;;;;36.13;13.47;;;;;;;;;;5018213;28;20185;-69
2021/12/11 07:08:07;;;;;;;34.90;14.07;;;;;;;;;;5003246;28;21640;-69
2021/12/11 07:10:33;;;;;;;33.83;14.10;;;;;;;;;;5006728;28;20183;-69
2021/12/11 07:12:58;;;;;;;34.87;14.73;;;;;;;;;;5005043;28;20187;-69
2021/12/11 07:15:24;;;;;;;39.03;14.60;;;;;;;;;;5010940;28;20670;-69
2021/12/11 07:17:49;;;;;;;38.27;13.80;;;;;;;;;;4652049;28;9999899;-69
2021/12/11 07:20:15;;;;;;;34.90;14.20;;;;;;;;;;5006053;28;20237;-69
2021/12/11 07:22:42;;;;;;;36.13;14.87;;;;;;;;;;4997441;28;20186;-69
2021/12/11 07:25:22;;;;;;;31.10;13.43;;;;;;;;;;5003979;28;20731;-69
2021/12/11 07:27:49;;;;;;;39.40;13.63;;;;;;;;;;4996543;28;20607;-69
2021/12/11 07:30:15;;;;;;;37.63;14.47;;;;;;;;;;5002493;28;20726;-69
2021/12/11 07:32:40;;;;;;;31.60;12.40;;;;;;;;;;4994860;28;20202;-69
2021/12/11 07:35:07;;;;;;;34.60;14.20;;;;;;;;;;4997845;28;20191;-68
2021/12/11 07:37:33;;;;;;;32.27;14.13;;;;;;;;;;5009561;28;20189;-69
2021/12/11 07:39:58;;;;;;;41.33;15.37;;;;;;;;;;5000407;28;20658;-69
2021/12/11 07:42:24;;;;;;;36.90;14.33;;;;;;;;;;5008806;28;20179;-69
2021/12/11 07:44:49;;;;;;;29.47;14.50;;;;;;;;;;5000538;28;20658;-69
2021/12/11 07:47:15;;;;;;;37.30;14.40;;;;;;;;;;5008395;28;20267;-69
2021/12/11 07:49:40;;;;;;;34.73;13.77;;;;;;;;;;5004353;28;20194;-69
2021/12/11 07:52:06;;;;;;;39.33;15.40;;;;;;;;;;5003721;28;20244;-69
2021/12/11 07:54:32;;;;;;;40.00;16.00;;;;;;;;;;5001676;28;20571;-69
2021/12/11 07:56:58;;;;;;;39.10;15.10;;;;;;;;;;5014317;28;20228;-69
2021/12/11 07:59:24;;;;;;;34.70;15.77;;;;;;;;;;5000776;28;20179;-70
2021/12/11 08:01:53;;;;;;;34.83;13.90;;;;;;;;;;5006807;28;20182;-69
2021/12/11 08:04:19;;;;;;;36.93;13.77;;;;;;;;;;5002519;28;20547;-69
2021/12/11 08:06:45;;;;;;;33.27;15.73;;;;;;;;;;5010120;28;20174;-69
2021/12/11 08:09:15;;;;;;;39.53;15.53;;;;;;;;;;5003941;28;20506;-69
2021/12/11 08:11:41;;;;;;;35.87;15.03;;;;;;;;;;5001182;28;20197;-69
2021/12/11 08:14:08;;;;;;;42.70;16.63;;;;;;;;;;5008309;28;20202;-69
2021/12/11 08:16:45;;;;;;;43.10;16.23;;;;;;;;;;4995622;28;20218;-69
2021/12/11 08:19:11;;;;;;;40.33;15.90;;;;;;;;;;5006564;28;20254;-69
2021/12/11 08:21:37;;;;;;;37.20;15.80;;;;;;;;;;5007063;28;20273;-69
2021/12/11 08:24:05;;;;;;;38.77;16.53;;;;;;;;;;5007167;28;20330;-69
2021/12/11 08:26:33;;;;;;;41.13;16.37;;;;;;;;;;5005424;28;20183;-69
2021/12/11 08:28:59;;;;;;;37.23;16.00;;;;;;;;;;5005415;28;20285;-69
2021/12/11 08:31:24;;;;;;;43.57;17.67;;;;;;;;;;5009912;28;20341;-69
2021/12/11 08:33:52;;;;;;;39.93;17.37;;;;;;;;;;5008730;28;20217;-69
2021/12/11 08:36:19;;;;;;;47.70;16.97;;;;;;;;;;4996397;28;20348;-69
2021/12/11 08:38:45;;;;;;;38.17;17.27;;;;;;;;;;5010126;28;20197;-68
2021/12/11 08:41:13;;;;;;;44.57;17.77;;;;;;;;;;5004366;28;20600;-69
2021/12/11 08:43:39;;;;;;;34.27;16.57;;;;;;;;;;5000871;28;20628;-69
2021/12/11 08:46:13;;;;;;;41.07;17.50;;;;;;;;;;5009428;28;20274;-68
2021/12/11 08:48:42;;;;;;;39.23;18.67;;;;;;;;;;5004579;28;20186;-69
2021/12/11 08:51:17;;;;;;;47.17;17.13;;;;;;;;;;5005082;28;20600;-69
2021/12/11 08:53:42;;;;;;;44.30;18.37;;;;;;;;;;4997629;28;20196;-69
2021/12/11 08:56:10;;;;;;;48.47;18.47;;;;;;;;;;5010134;28;20214;-69
2021/12/11 08:58:37;;;;;;;41.83;17.97;;;;;;;;;;5001689;28;20182;-69
2021/12/11 09:01:17;;;;;;;40.97;18.93;;;;;;;;;;5011884;28;20641;-69
2021/12/11 09:03:58;;;;;;;46.93;20.10;;;;;;;;;;5003737;28;20193;-70
2021/12/11 09:06:31;;;;;;;44.63;20.50;;;;;;;;;;5007180;28;20190;-70
2021/12/11 09:09:21;;;;;;;44.50;19.37;;;;;;;;;;5008332;28;20518;-70
2021/12/11 09:11:53;;;;;;;43.03;20.47;;;;;;;;;;5008440;28;20186;-70
2021/12/11 09:14:48;;;;;;;45.23;20.60;;;;;;;;;;5001117;28;20565;-70
2021/12/11 09:17:37;;;;;;;41.80;20.27;;;;;;;;;;5005461;28;20257;-70
2021/12/11 09:20:21;;;;;;;46.63;20.77;;;;;;;;;;4999292;28;20608;-71
2021/12/11 09:23:07;;;;;;;52.63;23.67;;;;;;;;;;5008609;28;20566;-70
2021/12/11 09:25:38;;;;;;;44.07;21.90;;;;;;;;;;5004346;28;20179;-70
2021/12/11 09:28:30;;;;;;;54.80;25.00;;;;;;;;;;5012826;28;20290;-70
2021/12/11 09:31:08;;;;;;;51.43;24.63;;;;;;;;;;4999775;28;20517;-71
2021/12/11 09:33:41;;;;;;;48.27;24.07;;;;;;;;;;5005345;28;20189;-71
2021/12/11 09:36:18;;;;;;;47.83;24.37;;;;;;;;;;5002873;28;20204;-71
2021/12/11 09:38:49;;;;;;;51.60;25.17;;;;;;;;;;5001173;28;20619;-71
2021/12/11 09:41:18;;;;;;;60.90;27.67;;;;;;;;;;5008865;28;20552;-70
2021/12/11 09:43:50;;;;;;;55.47;27.97;;;;;;;;;;5004903;28;20198;-70
2021/12/11 09:46:32;;;;;;;65.97;28.90;;;;;;;;;;4999722;28;20699;-70
2021/12/11 09:48:58;;;;;;;67.97;30.73;;;;;;;;;;5010544;28;20194;-70
2021/12/11 09:51:30;;;;;;;77.27;30.73;;;;;;;;;;5007174;28;20187;-70
2021/12/11 09:54:01;;;;;;;112.60;34.30;;;;;;;;;;5024591;28;20273;-71
2021/12/11 09:56:36;;;;;;;89.00;32.87;;;;;;;;;;4994814;28;20218;-71
2021/12/11 09:59:06;;;;;;;79.37;33.77;;;;;;;;;;5017647;28;20552;-71
2021/12/11 10:01:38;;;;;;;65.57;31.10;;;;;;;;;;4993094;28;20270;-70
2021/12/11 10:04:19;;;;;;;59.33;28.73;;;;;;;;;;5000058;28;20176;-70
2021/12/11 10:07:23;;;;;;;49.23;26.77;;;;;;;;;;4996838;28;20566;-71
2021/12/11 10:09:50;;;;;;;46.67;25.63;;;;;;;;;;5004981;28;20222;-71
2021/12/11 10:12:21;;;;;;;53.33;28.03;;;;;;;;;;4993120;28;20186;-71
2021/12/11 10:15:00;;;;;;;52.33;28.07;;;;;;;;;;5000280;28;20187;-70
2021/12/11 10:17:32;;;;;;;47.63;26.90;;;;;;;;;;4992669;28;20202;-71
2021/12/11 10:20:00;;;;;;;58.70;28.50;;;;;;;;;;5006740;28;20718;-71
2021/12/11 10:22:34;;;;;;;54.23;28.20;;;;;;;;;;5001730;28;20187;-71
2021/12/11 10:25:01;;;;;;;51.70;27.47;;;;;;;;;;5008731;28;20191;-71
2021/12/11 10:27:29;;;;;;;50.20;28.37;;;;;;;;;;5014868;28;20187;-71
2021/12/11 10:29:56;;;;;;;56.47;28.47;;;;;;;;;;5004574;28;20619;-71
2021/12/11 10:32:26;;;;;;;46.27;27.83;;;;;;;;;;5002545;28;20664;-71
2021/12/11 10:34:55;;;;;;;54.63;30.27;;;;;;;;;;5012416;28;20249;-71
2021/12/11 10:37:27;;;;;;;55.67;29.00;;;;;;;;;;5003502;28;20705;-71
2021/12/11 10:39:57;;;;;;;62.53;32.07;;;;;;;;;;5013275;28;20191;-71
2021/12/11 10:42:23;;;;;;;56.53;29.70;;;;;;;;;;5002392;28;20253;-71
2021/12/11 10:44:52;;;;;;;55.73;30.67;;;;;;;;;;5011551;28;20203;-71
2021/12/11 10:47:42;;;;;;;68.03;30.97;;;;;;;;;;5008918;28;20210;-71
2021/12/11 10:50:30;;;;;;;61.83;31.97;;;;;;;;;;5008065;28;20630;-71
2021/12/11 10:52:56;;;;;;;79.50;38.60;;;;;;;;;;5001453;28;20186;-71
2021/12/11 10:55:26;;;;;;;74.53;30.50;;;;;;;;;;5015239;28;20206;-71
2021/12/11 10:57:57;;;;;;;67.27;30.40;;;;;;;;;;5005663;28;20249;-71
2021/12/11 11:00:31;;;;;;;107.33;34.70;;;;;;;;;;5006891;28;20186;-71
2021/12/11 11:02:58;;;;;;;101.20;30.80;;;;;;;;;;5009668;28;20272;-71
2021/12/11 11:05:25;;;;;;;98.60;30.27;;;;;;;;;;5001482;28;20178;-75
2021/12/11 11:07:51;;;;;;;99.93;30.47;;;;;;;;;;5014509;28;20222;-72
2021/12/11 11:10:23;;;;;;;97.70;28.87;;;;;;;;;;5006741;28;20328;-72
2021/12/11 11:12:49;;;;;;;101.00;26.73;;;;;;;;;;5009962;28;20245;-72
2021/12/11 11:15:20;;;;;;;87.33;28.17;;;;;;;;;;5016073;28;20210;-72
2021/12/11 11:17:46;;;;;;;143.53;29.33;;;;;;;;;;5008018;28;20686;-72
2021/12/11 11:20:15;;;;;;;113.50;27.70;;;;;;;;;;5006888;28;20222;-77
2021/12/11 11:22:43;;;;;;;87.73;24.73;;;;;;;;;;5005587;28;20238;-72
2021/12/11 11:25:16;;;;;;;131.70;24.47;;;;;;;;;;5001222;28;20592;-72
2021/12/11 11:27:45;;;;;;;103.43;22.97;;;;;;;;;;5019872;28;20294;-73
2021/12/11 11:30:17;;;;;;;70.97;22.60;;;;;;;;;;5006988;28;20653;-73
2021/12/11 11:32:42;;;;;;;47.80;20.97;;;;;;;;;;5011328;28;20265;-73
2021/12/11 11:35:12;;;;;;;95.37;21.20;;;;;;;;;;5001718;28;20290;-73
2021/12/11 11:37:38;;;;;;;105.70;21.13;;;;;;;;;;5015007;28;20186;-73
2021/12/11 11:40:08;;;;;;;85.83;19.60;;;;;;;;;;5011336;28;20689;-73
2021/12/11 11:42:35;;;;;;;94.03;21.73;;;;;;;;;;5004577;28;20594;-73
2021/12/11 11:45:01;;;;;;;83.97;20.37;;;;;;;;;;5006573;28;20213;-73
2021/12/11 11:47:26;;;;;;;83.03;22.33;;;;;;;;;;4996986;28;20213;-73
2021/12/11 11:49:58;;;;;;;86.97;20.70;;;;;;;;;;5007604;28;20623;-72
2021/12/11 11:52:24;;;;;;;79.43;19.17;;;;;;;;;;4991872;28;20199;-73
2021/12/11 11:54:52;;;;;;;80.97;18.70;;;;;;;;;;5006808;28;20216;-73
2021/12/11 11:57:23;;;;;;;78.30;18.43;;;;;;;;;;4992365;28;20225;-73
2021/12/11 11:59:53;;;;;;;87.00;17.77;;;;;;;;;;5004276;28;20241;-73
2021/12/11 12:02:22;;;;;;;80.20;18.50;;;;;;;;;;5004486;28;20203;-73
2021/12/11 12:04:51;;;;;;;86.03;17.40;;;;;;;;;;5008852;28;20242;-74
2021/12/11 12:07:24;;;;;;;84.07;17.13;;;;;;;;;;4999558;28;20195;-74
2021/12/11 12:09:50;;;;;;;104.27;19.93;;;;;;;;;;5005372;28;20465;-74
2021/12/11 12:12:17;;;;;;;64.53;16.60;;;;;;;;;;4996865;28;20190;-73
2021/12/11 12:14:45;;;;;;;74.77;17.47;;;;;;;;;;5003992;28;20264;-73
2021/12/11 12:17:13;;;;;;;71.93;15.43;;;;;;;;;;5007284;28;20210;-73
2021/12/11 12:19:39;;;;;;;74.47;17.60;;;;;;;;;;5008059;28;20305;-73
2021/12/11 12:22:09;;;;;;;99.07;18.10;;;;;;;;;;5013266;28;20281;-74
2021/12/11 12:24:37;;;;;;;86.17;17.20;;;;;;;;;;5002660;28;20194;-74
2021/12/11 12:27:06;;;;;;;66.97;16.33;;;;;;;;;;5010287;28;20186;-73
2021/12/11 12:29:32;;;;;;;70.73;16.17;;;;;;;;;;5004687;28;20194;-74
2021/12/11 12:32:03;;;;;;;73.20;17.77;;;;;;;;;;5002185;28;20194;-74
2021/12/11 12:34:28;;;;;;;71.50;16.73;;;;;;;;;;4993554;28;20203;-74
2021/12/11 12:36:56;;;;;;;58.93;15.53;;;;;;;;;;4994192;28;20722;-75
2021/12/11 12:39:26;;;;;;;27.63;15.83;;;;;;;;;;4988700;28;20194;-74
2021/12/11 12:42:15;;;;;;;34.50;15.60;;;;;;;;;;5016643;28;20239;-74
2021/12/11 12:44:41;;;;;;;50.60;15.57;;;;;;;;;;4995000;28;20191;-74
2021/12/11 12:47:22;;;;;;;43.63;16.13;;;;;;;;;;5003769;28;20191;-74
2021/12/11 12:49:52;;;;;;;32.47;15.97;;;;;;;;;;4990813;28;20204;-74
2021/12/11 12:52:27;;;;;;;38.07;15.90;;;;;;;;;;5003123;28;20195;-74
2021/12/11 12:54:53;;;;;;;29.50;16.60;;;;;;;;;;4992442;28;20217;-75
2021/12/11 12:57:31;;;;;;;33.07;17.00;;;;;;;;;;4999914;28;20219;-75
2021/12/11 13:00:13;;;;;;;35.83;18.33;;;;;;;;;;4995084;28;20213;-74
2021/12/11 13:03:04;;;;;;;35.17;16.84;;;;;;;;;;4967596;28;10000463;-74
2021/12/11 13:05:40;;;;;;;30.67;17.63;;;;;;;;;;4988258;28;20429;-74
2021/12/11 13:08:14;;;;;;;30.37;16.00;;;;;;;;;;5003763;28;20239;-74
2021/12/11 13:10:45;;;;;;;31.43;16.17;;;;;;;;;;4992811;28;20261;-74
2021/12/11 13:13:12;;;;;;;29.50;15.97;;;;;;;;;;4998019;28;20198;-74
2021/12/11 13:15:48;;;;;;;31.80;17.10;;;;;;;;;;4990798;28;20218;-75
2021/12/11 13:18:17;;;;;;;32.60;16.37;;;;;;;;;;4998897;28;20178;-73
2021/12/11 13:20:54;;;;;;;37.33;17.17;;;;;;;;;;5000252;28;20564;-74
2021/12/11 13:23:20;;;;;;;40.60;17.17;;;;;;;;;;5013500;28;20192;-73
2021/12/11 13:25:56;;;;;;;39.17;18.00;;;;;;;;;;4998583;28;20187;-73
2021/12/11 13:28:24;;;;;;;35.70;17.07;;;;;;;;;;5007140;28;20199;-74
2021/12/11 13:30:54;;;;;;;65.10;18.93;;;;;;;;;;5008526;28;20215;-75
2021/12/11 13:33:23;;;;;;;44.07;17.87;;;;;;;;;;5003772;28;20213;-74
2021/12/11 13:35:50;;;;;;;48.80;17.47;;;;;;;;;;5007488;28;20238;-75
2021/12/11 13:38:17;;;;;;;49.53;18.37;;;;;;;;;;5005666;28;20240;-74
2021/12/11 13:40:47;;;;;;;55.33;18.67;;;;;;;;;;5007962;28;20541;-74
2021/12/11 13:43:14;;;;;;;63.13;18.00;;;;;;;;;;5001454;28;20204;-75
2021/12/11 13:45:42;;;;;;;65.63;18.20;;;;;;;;;;5003755;28;20211;-74
2021/12/11 13:48:11;;;;;;;74.60;21.23;;;;;;;;;;4996066;28;20435;-75
2021/12/11 13:50:44;;;;;;;102.83;20.60;;;;;;;;;;5001745;28;20202;-74
2021/12/11 13:53:11;;;;;;;84.93;20.77;;;;;;;;;;4996336;28;20198;-75
2021/12/11 13:55:37;;;;;;;94.03;19.93;;;;;;;;;;5007364;28;20680;-74
2021/12/11 13:58:07;;;;;;;102.30;18.13;;;;;;;;;;5003713;28;20257;-74
2021/12/11 14:00:40;;;;;;;77.67;18.20;;;;;;;;;;5007436;28;20191;-75
2021/12/11 14:03:06;;;;;;;95.27;19.00;;;;;;;;;;5001673;28;20276;-74
2021/12/11 14:05:33;;;;;;;72.63;18.97;;;;;;;;;;5002855;28;20186;-74
2021/12/11 14:08:02;;;;;;;118.70;21.03;;;;;;;;;;4997912;28;20196;-74
2021/12/11 14:10:32;;;;;;;85.27;19.90;;;;;;;;;;5006994;28;20590;-74
2021/12/11 14:12:58;;;;;;;123.83;21.53;;;;;;;;;;5000345;28;20217;-73
2021/12/11 14:15:24;;;;;;;112.73;23.00;;;;;;;;;;4998944;28;20427;-74
2021/12/11 14:17:51;;;;;;;112.13;24.30;;;;;;;;;;5014197;28;20706;-73
2021/12/11 14:20:19;;;;;;;75.33;20.27;;;;;;;;;;4994216;28;20253;-74
2021/12/11 14:22:45;;;;;;;79.10;20.00;;;;;;;;;;5003501;28;20202;-74
2021/12/11 14:25:13;;;;;;;120.07;24.37;;;;;;;;;;4993699;28;20564;-73
2021/12/11 14:27:40;;;;;;;83.93;22.90;;;;;;;;;;5008802;28;20202;-74
2021/12/11 14:30:10;;;;;;;95.80;23.63;;;;;;;;;;4991320;28;20661;-74
2021/12/11 14:32:44;;;;;;;175.40;27.07;;;;;;;;;;5008389;28;20289;-74
2021/12/11 14:35:16;;;;;;;78.97;22.67;;;;;;;;;;4996926;28;20194;-74
2021/12/11 14:37:43;;;;;;;162.93;27.37;;;;;;;;;;4999502;28;20190;-74
2021/12/11 14:40:12;;;;;;;151.23;25.20;;;;;;;;;;4998670;28;20603;-74
2021/12/11 14:42:39;;;;;;;179.53;25.07;;;;;;;;;;4987224;28;20199;-74
2021/12/11 14:45:11;;;;;;;142.23;22.40;;;;;;;;;;4998929;28;20667;-74
2021/12/11 14:47:37;;;;;;;172.83;25.97;;;;;;;;;;5003004;28;20191;-73
2021/12/11 14:50:06;;;;;;;173.10;24.63;;;;;;;;;;4997267;28;20555;-73